sensor_id;sensor_type;location;lat;lon;timestamp;temperature;humidity
54946;DHT22;40846;44.788;20.486;2022-08-04T09:24:57;870.80;1280.00
54946;DHT22;40846;44.788;20.486;2022-08-04T09:27:41;870.40;1254.40
54946;DHT22;40846;44.788;20.486;2022-08-04T09:30:09;870.40;1203.20
54946;DHT22;40846;44.788;20.486;2022-08-04T09:38:14;845.60;1203.20
54946;DHT22;40846;44.788;20.486;2022-08-04T09:47:11;870.40;1254.40
54946;DHT22;40846;44.788;20.486;2022-08-04T09:52:36;870.50;1203.20
54946;DHT22;40846;44.788;20.486;2022-08-04T09:55:29;870.40;1203.20
54946;DHT22;40846;44.788;20.486;2022-08-04T10:00:32;870.40;1126.40
54946;DHT22;40846;44.788;20.486;2022-08-04T10:02:59;870.40;1177.60
54946;DHT22;40846;44.788;20.486;2022-08-04T10:34:09;870.60;1049.60
54946;DHT22;40846;44.788;20.486;2022-08-04T10:36:47;870.60;1075.20
54946;DHT22;40846;44.788;20.486;2022-08-04T10:39:24;870.60;1075.20
54946;DHT22;40846;44.788;20.486;2022-08-04T10:42:24;870.70;1100.80
54946;DHT22;40846;44.788;20.486;2022-08-04T10:45:13;870.60;1075.20
54946;DHT22;40846;44.788;20.486;2022-08-04T10:47:48;870.60;1049.60
54946;DHT22;40846;44.788;20.486;2022-08-04T10:50:15;870.60;1024.00
54946;DHT22;40846;44.788;20.486;2022-08-04T10:52:56;870.40;1024.00
54946;DHT22;40846;44.788;20.486;2022-08-04T10:55:51;870.40;1049.60
54946;DHT22;40846;44.788;20.486;2022-08-04T10:58:22;845.60;1075.20
54946;DHT22;40846;44.788;20.486;2022-08-04T11:00:54;845.50;1075.20
54946;DHT22;40846;44.788;20.486;2022-08-04T11:03:33;845.40;1049.60
54946;DHT22;40846;44.788;20.486;2022-08-04T11:06:06;845.40;1049.60
54946;DHT22;40846;44.788;20.486;2022-08-04T11:16:41;845.20;1075.20
54946;DHT22;40846;44.788;20.486;2022-08-04T11:22:11;845.60;1075.20
54946;DHT22;40846;44.788;20.486;2022-08-04T11:28:09;845.30;1126.40
54946;DHT22;40846;44.788;20.486;2022-08-04T11:31:05;845.10;1100.80
54946;DHT22;40846;44.788;20.486;2022-08-04T11:38:37;845.60;1177.60
54946;DHT22;40846;44.788;20.486;2022-08-04T11:46:35;845.60;1177.60
54946;DHT22;40846;44.788;20.486;2022-08-04T11:49:10;845.30;1203.20
54946;DHT22;40846;44.788;20.486;2022-08-04T11:51:37;845.30;1203.20
54946;DHT22;40846;44.788;20.486;2022-08-04T11:54:04;845.30;1177.60
54946;DHT22;40846;44.788;20.486;2022-08-04T11:56:31;845.30;1203.20
54946;DHT22;40846;44.788;20.486;2022-08-04T11:58:57;845.20;1203.20
54946;DHT22;40846;44.788;20.486;2022-08-04T12:07:06;845.20;1203.20
54946;DHT22;40846;44.788;20.486;2022-08-04T12:15:19;845.30;1203.20
54946;DHT22;40846;44.788;20.486;2022-08-04T12:17:53;845.40;1177.60
54946;DHT22;40846;44.788;20.486;2022-08-04T12:20:24;845.40;1177.60
54946;DHT22;40846;44.788;20.486;2022-08-04T12:22:53;845.40;1203.20
54946;DHT22;40846;44.788;20.486;2022-08-04T12:25:25;845.40;1203.20
54946;DHT22;40846;44.788;20.486;2022-08-04T12:30:43;845.40;1177.60
54946;DHT22;40846;44.788;20.486;2022-08-04T12:33:14;845.40;1177.60
54946;DHT22;40846;44.788;20.486;2022-08-04T12:36:01;845.40;1177.60
54946;DHT22;40846;44.788;20.486;2022-08-04T12:38:32;845.30;1152.00
54946;DHT22;40846;44.788;20.486;2022-08-04T12:41:00;845.40;1152.00
54946;DHT22;40846;44.788;20.486;2022-08-04T12:43:40;845.40;1152.00
54946;DHT22;40846;44.788;20.486;2022-08-04T12:46:08;845.40;1126.40
54946;DHT22;40846;44.788;20.486;2022-08-04T12:48:36;845.30;1152.00
54946;DHT22;40846;44.788;20.486;2022-08-04T12:51:06;845.30;1152.00
54946;DHT22;40846;44.788;20.486;2022-08-04T12:53:38;845.30;1152.00
54946;DHT22;40846;44.788;20.486;2022-08-04T12:56:06;845.40;1152.00
54946;DHT22;40846;44.788;20.486;2022-08-04T12:58:44;845.40;1126.40
54946;DHT22;40846;44.788;20.486;2022-08-04T13:01:25;845.40;1126.40
54946;DHT22;40846;44.788;20.486;2022-08-04T13:04:14;845.40;1126.40
54946;DHT22;40846;44.788;20.486;2022-08-04T13:06:41;845.40;1152.00
54946;DHT22;40846;44.788;20.486;2022-08-04T13:09:16;845.40;1152.00
54946;DHT22;40846;44.788;20.486;2022-08-04T13:11:48;845.40;1152.00
54946;DHT22;40846;44.788;20.486;2022-08-04T13:14:14;845.40;1152.00
54946;DHT22;40846;44.788;20.486;2022-08-04T13:16:42;845.40;1152.00
54946;DHT22;40846;44.788;20.486;2022-08-04T13:19:09;845.40;1126.40
54946;DHT22;40846;44.788;20.486;2022-08-04T13:21:41;845.40;1126.40
54946;DHT22;40846;44.788;20.486;2022-08-04T13:24:13;845.40;1126.40
54946;DHT22;40846;44.788;20.486;2022-08-04T13:26:48;845.40;1100.80
54946;DHT22;40846;44.788;20.486;2022-08-04T13:29:38;845.50;1100.80
54946;DHT22;40846;44.788;20.486;2022-08-04T13:35:51;845.40;1075.20
54946;DHT22;40846;44.788;20.486;2022-08-04T13:38:16;845.40;1075.20
54946;DHT22;40846;44.788;20.486;2022-08-04T13:40:43;845.40;1075.20
54946;DHT22;40846;44.788;20.486;2022-08-04T13:46:18;845.40;1075.20
54946;DHT22;40846;44.788;20.486;2022-08-04T13:48:45;845.20;1075.20
54946;DHT22;40846;44.788;20.486;2022-08-04T13:51:19;845.20;1100.80
54946;DHT22;40846;44.788;20.486;2022-08-04T13:53:58;845.20;1100.80
54946;DHT22;40846;44.788;20.486;2022-08-04T13:56:34;845.10;1100.80
54946;DHT22;40846;44.788;20.486;2022-08-04T13:59:03;845.10;1126.40
54946;DHT22;40846;44.788;20.486;2022-08-04T14:01:29;845.10;1126.40
54946;DHT22;40846;44.788;20.486;2022-08-04T14:04:02;845.20;1126.40
54946;DHT22;40846;44.788;20.486;2022-08-04T14:09:01;845.60;1126.40
54946;DHT22;40846;44.788;20.486;2022-08-04T14:11:34;845.30;1126.40
54946;DHT22;40846;44.788;20.486;2022-08-04T14:14:14;845.20;1126.40
54946;DHT22;40846;44.788;20.486;2022-08-04T14:17:02;845.20;1126.40
54946;DHT22;40846;44.788;20.486;2022-08-04T14:25:14;845.10;1152.00
54946;DHT22;40846;44.788;20.486;2022-08-04T14:27:44;845.10;1152.00
54946;DHT22;40846;44.788;20.486;2022-08-04T14:30:20;845.10;1152.00
54946;DHT22;40846;44.788;20.486;2022-08-04T14:33:01;845.10;1152.00
54946;DHT22;40846;44.788;20.486;2022-08-04T14:35:28;845.10;1152.00
54946;DHT22;40846;44.788;20.486;2022-08-04T14:37:58;845.10;1152.00
54946;DHT22;40846;44.788;20.486;2022-08-04T14:40:27;845.10;1152.00
54946;DHT22;40846;44.788;20.486;2022-08-04T14:42:53;845.10;1152.00
54946;DHT22;40846;44.788;20.486;2022-08-04T14:48:05;845.10;1177.60
54946;DHT22;40846;44.788;20.486;2022-08-04T14:58:32;845.50;1177.60
54946;DHT22;40846;44.788;20.486;2022-08-04T15:01:03;845.40;1152.00
54946;DHT22;40846;44.788;20.486;2022-08-04T15:10:10;845.40;1152.00
54946;DHT22;40846;44.788;20.486;2022-08-04T15:12:36;845.40;1152.00
54946;DHT22;40846;44.788;20.486;2022-08-04T15:15:02;845.40;1152.00
54946;DHT22;40846;44.788;20.486;2022-08-04T15:17:29;845.30;1152.00
54946;DHT22;40846;44.788;20.486;2022-08-04T15:19:56;845.30;1126.40
54946;DHT22;40846;44.788;20.486;2022-08-04T15:22:21;845.20;1126.40
54946;DHT22;40846;44.788;20.486;2022-08-04T15:24:48;845.20;1126.40
54946;DHT22;40846;44.788;20.486;2022-08-04T15:27:22;845.20;1126.40
54946;DHT22;40846;44.788;20.486;2022-08-04T15:30:28;845.10;1126.40
54946;DHT22;40846;44.788;20.486;2022-08-04T15:40:06;845.10;1152.00
54946;DHT22;40846;44.788;20.486;2022-08-04T15:42:46;845.20;1177.60
54946;DHT22;40846;44.788;20.486;2022-08-04T15:55:36;845.10;1152.00
54946;DHT22;40846;44.788;20.486;2022-08-04T15:58:06;845.10;1152.00
54946;DHT22;40846;44.788;20.486;2022-08-04T16:21:50;820.00;1126.40
54946;DHT22;40846;44.788;20.486;2022-08-04T16:27:00;820.00;1126.40
54946;DHT22;40846;44.788;20.486;2022-08-04T16:29:27;820.00;1126.40
54946;DHT22;40846;44.788;20.486;2022-08-04T17:49:20;819.80;1203.20
54946;DHT22;40846;44.788;20.486;2022-08-04T17:51:50;819.50;1228.80
54946;DHT22;40846;44.788;20.486;2022-08-04T17:54:28;819.50;1228.80
54946;DHT22;40846;44.788;20.486;2022-08-04T17:57:11;819.30;1254.40
54946;DHT22;40846;44.788;20.486;2022-08-04T18:09:53;819.50;1254.40
54946;DHT22;40846;44.788;20.486;2022-08-04T18:12:32;819.30;1254.40
54946;DHT22;40846;44.788;20.486;2022-08-04T18:15:00;819.30;1280.00
54946;DHT22;40846;44.788;20.486;2022-08-04T18:17:43;819.20;1305.60
54946;DHT22;40846;44.788;20.486;2022-08-04T18:20:13;794.40;1280.00
54946;DHT22;40846;44.788;20.486;2022-08-04T18:47:22;793.90;1331.20
54946;DHT22;40846;44.788;20.486;2022-08-04T18:49:52;768.80;1331.20
54946;DHT22;40846;44.788;20.486;2022-08-04T18:52:18;768.70;1331.20
54946;DHT22;40846;44.788;20.486;2022-08-04T18:54:44;768.60;1331.20
54946;DHT22;40846;44.788;20.486;2022-08-04T18:57:09;768.60;1356.80
54946;DHT22;40846;44.788;20.486;2022-08-04T18:59:35;768.50;1356.80
54946;DHT22;40846;44.788;20.486;2022-08-04T19:02:01;768.50;1356.80
54946;DHT22;40846;44.788;20.486;2022-08-04T19:04:27;768.30;1382.40
54946;DHT22;40846;44.788;20.486;2022-08-04T19:06:53;768.30;1382.40
54946;DHT22;40846;44.788;20.486;2022-08-04T19:09:19;768.50;1382.40
54946;DHT22;40846;44.788;20.486;2022-08-04T19:11:45;768.10;1408.00
54946;DHT22;40846;44.788;20.486;2022-08-04T19:14:11;768.00;1382.40
54946;DHT22;40846;44.788;20.486;2022-08-04T19:16:37;743.20;1408.00
54946;DHT22;40846;44.788;20.486;2022-08-04T19:19:04;743.20;1408.00
54946;DHT22;40846;44.788;20.486;2022-08-04T19:21:31;743.10;1408.00
54946;DHT22;40846;44.788;20.486;2022-08-04T19:23:57;743.00;1433.60
54946;DHT22;40846;44.788;20.486;2022-08-04T19:26:23;743.00;1433.60
54946;DHT22;40846;44.788;20.486;2022-08-04T19:38:36;743.00;1484.80
54946;DHT22;40846;44.788;20.486;2022-08-04T19:41:03;742.70;1484.80
54946;DHT22;40846;44.788;20.486;2022-08-04T19:43:30;742.80;1510.40
54946;DHT22;40846;44.788;20.486;2022-08-04T19:45:56;742.70;1510.40
54946;DHT22;40846;44.788;20.486;2022-08-04T19:48:22;742.60;1536.00
54946;DHT22;40846;44.788;20.486;2022-08-04T19:50:49;742.80;1484.80
54946;DHT22;40846;44.788;20.486;2022-08-04T19:53:15;742.60;1510.40
54946;DHT22;40846;44.788;20.486;2022-08-04T19:55:43;742.50;1510.40
54946;DHT22;40846;44.788;20.486;2022-08-04T20:00:38;742.70;1510.40
54946;DHT22;40846;44.788;20.486;2022-08-04T20:03:05;742.50;1510.40
54946;DHT22;40846;44.788;20.486;2022-08-04T20:05:32;717.70;1484.80
54946;DHT22;40846;44.788;20.486;2022-08-04T20:17:42;742.60;1536.00
54946;DHT22;40846;44.788;20.486;2022-08-04T20:20:09;742.50;1536.00
54946;DHT22;40846;44.788;20.486;2022-08-04T20:22:35;742.40;1536.00
54946;DHT22;40846;44.788;20.486;2022-08-04T20:25:02;717.60;1510.40
54946;DHT22;40846;44.788;20.486;2022-08-04T20:27:28;717.50;1510.40
54946;DHT22;40846;44.788;20.486;2022-08-04T20:29:53;717.50;1536.00
54946;DHT22;40846;44.788;20.486;2022-08-04T20:32:22;717.50;1561.60
54946;DHT22;40846;44.788;20.486;2022-08-04T20:34:49;717.50;1561.60
54946;DHT22;40846;44.788;20.486;2022-08-04T20:37:14;717.70;1587.20
54946;DHT22;40846;44.788;20.486;2022-08-04T20:39:41;717.60;1612.80
54946;DHT22;40846;44.788;20.486;2022-08-04T20:42:07;717.20;1587.20
54946;DHT22;40846;44.788;20.486;2022-08-04T20:46:59;717.60;1587.20
54946;DHT22;40846;44.788;20.486;2022-08-04T20:49:24;717.30;1612.80
54946;DHT22;40846;44.788;20.486;2022-08-04T20:51:50;717.30;1612.80
54946;DHT22;40846;44.788;20.486;2022-08-04T20:54:16;717.50;1587.20
54946;DHT22;40846;44.788;20.486;2022-08-04T20:56:42;717.20;1587.20
54946;DHT22;40846;44.788;20.486;2022-08-04T20:59:07;717.20;1587.20
54946;DHT22;40846;44.788;20.486;2022-08-04T21:01:33;717.20;1587.20
54946;DHT22;40846;44.788;20.486;2022-08-04T21:03:59;717.20;1561.60
54946;DHT22;40846;44.788;20.486;2022-08-04T21:06:43;717.20;1587.20
54946;DHT22;40846;44.788;20.486;2022-08-04T21:09:09;717.10;1587.20
